createdAt,value
2019-02-02T00:01:54.247Z,2.70
2019-02-02T00:04:24.564Z,2.70
2019-02-02T00:06:54.897Z,2.70
2019-02-02T00:09:25.592Z,2.80
2019-02-02T00:11:55.888Z,2.70
2019-02-02T00:14:26.314Z,2.80
2019-02-02T00:16:56.649Z,2.80
2019-02-02T00:19:27.569Z,2.80
2019-02-02T00:21:58.178Z,2.80
2019-02-02T00:24:28.523Z,2.90
2019-02-02T00:26:58.865Z,2.90
2019-02-02T00:29:29.251Z,2.90
2019-02-02T00:31:59.606Z,2.80
2019-02-02T00:34:47.080Z,2.90
2019-02-02T00:37:17.376Z,2.90
2019-02-02T00:39:48.184Z,3.00
2019-02-02T00:42:18.556Z,2.90
2019-02-02T00:44:49.193Z,2.90
2019-02-02T00:47:19.532Z,2.90
2019-02-02T00:49:49.893Z,2.90
2019-02-02T00:52:20.244Z,2.90
2019-02-02T00:54:50.587Z,2.90
2019-02-02T00:57:20.911Z,2.90
2019-02-02T00:59:51.524Z,2.90
2019-02-02T01:02:21.839Z,2.90
2019-02-02T01:04:52.212Z,2.90
2019-02-02T01:07:23.153Z,3.00
2019-02-02T01:09:53.498Z,3.00
2019-02-02T01:12:23.806Z,3.00
2019-02-02T01:14:54.514Z,3.00
2019-02-02T01:17:24.868Z,3.00
2019-02-02T01:19:55.195Z,3.00
2019-02-02T01:22:25.576Z,3.00
2019-02-02T01:24:56.469Z,3.10
2019-02-02T01:27:26.841Z,3.10
2019-02-02T01:29:57.166Z,3.10
2019-02-02T01:32:27.796Z,3.10
2019-02-02T01:34:58.147Z,3.10
2019-02-02T01:37:28.512Z,3.10
2019-02-02T01:40:02.042Z,3.00
2019-02-02T01:42:32.433Z,3.10
2019-02-02T01:45:02.987Z,3.10
2019-02-02T01:47:33.302Z,3.00
2019-02-02T01:50:03.628Z,3.00
2019-02-02T01:52:34.282Z,3.10
2019-02-02T01:55:05.431Z,3.10
2019-02-02T01:57:36.159Z,3.10
2019-02-02T02:00:09.984Z,3.20
2019-02-02T02:02:40.720Z,3.20
2019-02-02T02:05:11.303Z,3.20
2019-02-02T02:07:41.963Z,3.20
2019-02-02T02:10:13.983Z,3.30
2019-02-02T02:12:44.308Z,3.30
2019-02-02T02:15:16.165Z,3.30
2019-02-02T02:17:47.334Z,3.30
2019-02-02T02:20:19.186Z,3.30
2019-02-02T02:22:50.640Z,3.30
2019-02-02T02:25:25.563Z,3.30
2019-02-02T02:27:55.871Z,3.40
2019-02-02T02:30:26.565Z,3.40
2019-02-02T02:32:57.078Z,3.30
2019-02-02T02:35:27.500Z,3.30
2019-02-02T02:37:58.026Z,3.40
2019-02-02T02:40:28.364Z,3.40
2019-02-02T02:42:58.752Z,3.40
2019-02-02T02:45:29.080Z,3.50
2019-02-02T02:47:59.391Z,3.50
2019-02-02T02:50:30.108Z,3.50
2019-02-02T02:53:00.419Z,3.50
2019-02-02T02:55:33.185Z,3.50
2019-02-02T02:58:03.553Z,3.50
2019-02-02T03:00:33.925Z,3.40
2019-02-02T03:03:04.635Z,3.40
2019-02-02T03:05:35.019Z,3.50
2019-02-02T03:08:05.405Z,3.50
2019-02-02T03:10:36.038Z,3.40
2019-02-02T03:13:06.706Z,3.30
2019-02-02T03:15:37.067Z,3.30
2019-02-02T03:18:36.132Z,3.40
2019-02-02T03:21:06.478Z,3.30
2019-02-02T03:23:37.063Z,3.40
2019-02-02T03:26:07.652Z,3.40
2019-02-02T03:28:38.336Z,3.40
2019-02-02T03:31:08.727Z,3.40
2019-02-02T03:33:39.055Z,3.30
2019-02-02T03:36:09.421Z,3.30
2019-02-02T03:38:39.795Z,3.30
2019-02-02T03:41:10.754Z,3.20
2019-02-02T03:43:41.090Z,3.20
2019-02-02T03:46:11.484Z,3.20
2019-02-02T03:48:41.838Z,3.30
2019-02-02T03:51:12.165Z,3.30
2019-02-02T03:53:42.482Z,3.20
2019-02-02T03:56:12.837Z,3.30
2019-02-02T03:58:43.180Z,3.40
2019-02-02T04:01:13.515Z,3.30
2019-02-02T04:03:44.436Z,3.30
2019-02-02T04:06:15.191Z,2.90
2019-02-02T04:08:45.623Z,3.00
2019-02-02T04:11:16.324Z,3.10
2019-02-02T04:13:46.779Z,3.00
2019-02-02T04:16:17.095Z,3.00
2019-02-02T04:18:47.438Z,3.10
2019-02-02T04:21:17.863Z,3.10
2019-02-02T04:23:48.228Z,3.20
2019-02-02T04:26:19.737Z,3.10
2019-02-02T04:28:50.427Z,3.00
2019-02-02T04:31:20.765Z,3.00
2019-02-02T04:33:51.404Z,3.00
2019-02-02T04:36:21.765Z,3.10
2019-02-02T04:38:52.084Z,3.10
2019-02-02T04:41:22.440Z,3.10
2019-02-02T04:43:52.789Z,3.10
2019-02-02T04:46:23.631Z,3.00
2019-02-02T04:48:53.990Z,3.00
2019-02-02T04:51:24.283Z,2.90
2019-02-02T04:53:54.622Z,3.00
2019-02-02T04:56:25.224Z,3.00
2019-02-02T04:58:55.622Z,2.90
2019-02-02T05:01:25.954Z,2.90
2019-02-02T05:03:56.269Z,2.90
2019-02-02T05:06:26.981Z,2.90
2019-02-02T05:08:57.321Z,2.70
2019-02-02T05:11:28.018Z,2.70
2019-02-02T05:13:58.362Z,2.80
2019-02-02T05:16:28.718Z,2.70
2019-02-02T05:18:59.387Z,2.70
2019-02-02T05:21:29.720Z,2.70
2019-02-02T05:24:00.037Z,2.70
2019-02-02T05:26:30.343Z,2.80
2019-02-02T05:29:00.673Z,2.80
2019-02-02T05:31:31.023Z,2.80
2019-02-02T05:34:01.391Z,2.70
2019-02-02T05:36:32.759Z,2.70
2019-02-02T05:39:04.464Z,2.70
2019-02-02T05:41:34.835Z,2.70
2019-02-02T05:44:05.650Z,2.70
2019-02-02T05:46:36.246Z,2.70
2019-02-02T05:49:06.602Z,2.70
2019-02-02T05:51:36.946Z,2.80
2019-02-02T05:54:07.687Z,2.80
2019-02-02T05:56:38.064Z,2.80
2019-02-02T05:59:08.428Z,2.80
2019-02-02T06:01:39.128Z,2.70
2019-02-02T06:04:09.558Z,2.90
2019-02-02T06:06:42.203Z,2.90
2019-02-02T06:09:13.101Z,2.90
2019-02-02T06:11:43.399Z,2.80
2019-02-02T06:14:13.969Z,2.90
2019-02-02T06:16:44.602Z,2.90
2019-02-02T06:19:15.200Z,2.90
2019-02-02T06:21:45.562Z,2.90
2019-02-02T06:24:16.581Z,3.00
2019-02-02T06:26:46.924Z,3.00
2019-02-02T06:29:17.508Z,2.90
2019-02-02T06:31:47.883Z,2.80
2019-02-02T06:34:18.370Z,2.90
2019-02-02T06:36:48.764Z,3.00
2019-02-02T06:39:19.097Z,2.90
2019-02-02T06:41:49.966Z,2.80
2019-02-02T06:44:20.579Z,2.90
2019-02-02T06:46:51.040Z,3.00
2019-02-02T06:49:21.770Z,3.10
2019-02-02T06:51:52.134Z,3.00
2019-02-02T06:54:22.751Z,3.00
2019-02-02T06:56:53.071Z,3.00
2019-02-02T06:59:23.447Z,3.00
2019-02-02T07:02:09.589Z,3.00
2019-02-02T07:04:39.923Z,2.70
2019-02-02T07:07:10.274Z,2.70
2019-02-02T07:09:40.863Z,2.80
2019-02-02T07:12:11.224Z,2.30
2019-02-02T07:14:41.664Z,2.60
2019-02-02T07:17:11.999Z,2.80
2019-02-02T07:20:01.451Z,2.90
2019-02-02T07:22:32.056Z,3.00
2019-02-02T07:25:02.365Z,2.90
2019-02-02T07:27:33.740Z,3.00
2019-02-02T07:30:06.114Z,3.10
2019-02-02T07:32:36.426Z,3.00
2019-02-02T07:35:08.746Z,3.10
2019-02-02T07:37:39.086Z,3.20
2019-02-02T07:40:13.729Z,3.10
2019-02-02T07:42:44.118Z,3.00
2019-02-02T07:45:25.439Z,2.90
2019-02-02T07:47:56.813Z,3.00
2019-02-02T07:50:27.138Z,3.00
2019-02-02T07:52:57.763Z,2.80
2019-02-02T07:55:28.144Z,2.60
2019-02-02T07:57:58.765Z,2.70
2019-02-02T08:00:40.910Z,2.70
2019-02-02T08:03:10.447Z,2.90
2019-02-02T08:05:40.799Z,3.00
2019-02-02T08:08:11.388Z,2.90
2019-02-02T08:10:41.972Z,2.70
2019-02-02T08:13:12.330Z,2.80
2019-02-02T08:15:46.784Z,2.80
2019-02-02T08:18:17.089Z,3.00
2019-02-02T08:20:47.422Z,3.00
2019-02-02T08:23:18.027Z,3.00
2019-02-02T08:25:48.406Z,3.20
2019-02-02T08:28:21.569Z,3.00
2019-02-02T08:30:52.667Z,2.70
2019-02-02T08:33:34.787Z,2.70
2019-02-02T08:36:05.314Z,2.70
2019-02-02T08:38:35.711Z,2.90
2019-02-02T08:41:06.196Z,2.90
2019-02-02T08:43:36.847Z,2.70
2019-02-02T08:46:07.736Z,3.00
2019-02-02T08:48:38.128Z,2.80
2019-02-02T08:51:09.023Z,3.10
2019-02-02T08:53:39.627Z,3.10
2019-02-02T08:56:19.540Z,3.30
2019-02-02T08:58:50.630Z,3.20
2019-02-02T09:01:20.982Z,2.80
2019-02-02T09:03:51.326Z,2.80
2019-02-02T09:06:21.714Z,3.20
2019-02-02T09:08:52.424Z,3.30
2019-02-02T09:11:23.093Z,3.40
2019-02-02T09:13:53.533Z,3.10
2019-02-02T09:16:24.101Z,3.10
2019-02-02T09:18:54.435Z,3.50
2019-02-02T09:21:24.751Z,3.60
2019-02-02T09:23:55.123Z,3.40
2019-02-02T09:26:32.897Z,3.10
2019-02-02T09:29:03.234Z,3.10
2019-02-02T09:31:33.555Z,2.80
2019-02-02T09:34:03.937Z,3.00
2019-02-02T09:36:34.290Z,2.60
2019-02-02T09:39:06.908Z,2.40
2019-02-02T09:41:37.301Z,2.50
2019-02-02T09:44:07.650Z,2.60
2019-02-02T09:46:56.463Z,2.90
2019-02-02T09:49:26.876Z,3.00
2019-02-02T09:51:57.741Z,3.20
2019-02-02T09:54:28.103Z,3.00
2019-02-02T09:56:58.487Z,3.20
2019-02-02T09:59:29.051Z,2.50
2019-02-02T10:01:59.709Z,2.40
2019-02-02T10:04:30.059Z,2.70
2019-02-02T10:07:01.325Z,3.10
2019-02-02T10:09:31.912Z,3.40
2019-02-02T10:12:21.657Z,3.40
2019-02-02T10:14:57.432Z,3.60
2019-02-02T10:17:28.051Z,3.60
2019-02-02T10:19:58.482Z,3.80
2019-02-02T10:22:29.089Z,4.10
2019-02-02T10:24:59.489Z,4.00
2019-02-02T10:27:30.187Z,3.70
2019-02-02T10:30:00.587Z,3.90
2019-02-02T10:32:31.129Z,3.90
2019-02-02T10:35:01.819Z,3.90
2019-02-02T10:37:32.274Z,4.20
2019-02-02T10:40:02.658Z,4.30
2019-02-02T10:42:33.082Z,4.10
2019-02-02T10:45:03.827Z,4.00
2019-02-02T10:47:34.201Z,4.10
2019-02-02T10:50:05.149Z,3.90
2019-02-02T10:52:36.872Z,3.90
2019-02-02T10:55:09.086Z,3.90
2019-02-02T10:57:41.235Z,4.00
2019-02-02T11:00:42.321Z,3.90
2019-02-02T11:03:13.110Z,4.10
2019-02-02T11:05:43.819Z,4.00
2019-02-02T11:08:14.182Z,3.50
2019-02-02T11:10:44.626Z,3.60
2019-02-02T11:13:18.655Z,3.50
2019-02-02T11:15:49.045Z,3.70
2019-02-02T11:18:19.489Z,3.50
2019-02-02T11:20:50.252Z,3.50
2019-02-02T11:23:20.725Z,3.90
2019-02-02T11:25:51.442Z,4.10
2019-02-02T11:28:21.929Z,3.80
2019-02-02T11:30:52.496Z,4.10
2019-02-02T11:33:22.909Z,4.00
2019-02-02T11:35:53.555Z,4.30
2019-02-02T11:38:32.379Z,3.90
2019-02-02T11:41:02.876Z,4.00
2019-02-02T11:43:33.217Z,4.00
2019-02-02T11:46:03.592Z,4.00
2019-02-02T11:48:34.410Z,3.80
2019-02-02T11:51:04.778Z,4.10
2019-02-02T11:53:37.352Z,3.80
2019-02-02T11:56:07.684Z,4.00
2019-02-02T11:58:38.015Z,3.90
2019-02-02T12:01:08.571Z,4.00
2019-02-02T12:03:39.206Z,3.90
2019-02-02T12:06:09.590Z,4.10
2019-02-02T12:08:40.194Z,4.00
2019-02-02T12:11:19.851Z,4.00
2019-02-02T12:13:50.224Z,4.00
2019-02-02T12:16:20.597Z,3.80
2019-02-02T12:18:51.994Z,3.50
2019-02-02T12:21:22.331Z,3.50
2019-02-02T12:23:57.399Z,3.50
2019-02-02T12:26:27.737Z,3.70
2019-02-02T12:28:58.332Z,4.00
2019-02-02T12:31:28.684Z,4.00
2019-02-02T12:33:59.021Z,3.80
2019-02-02T12:36:29.389Z,3.70
2019-02-02T12:38:59.753Z,3.40
2019-02-02T12:41:34.044Z,3.80
2019-02-02T12:44:04.691Z,3.90
2019-02-02T12:46:35.056Z,4.10
2019-02-02T12:49:05.508Z,4.00
2019-02-02T12:51:36.201Z,3.90
2019-02-02T12:54:13.520Z,3.90
2019-02-02T12:56:44.282Z,3.70
2019-02-02T12:59:38.056Z,4.00
2019-02-02T13:02:08.581Z,3.50
2019-02-02T13:04:38.933Z,3.50
2019-02-02T13:07:09.697Z,3.90
2019-02-02T13:09:40.052Z,3.70
2019-02-02T13:12:10.419Z,3.20
2019-02-02T13:14:40.781Z,3.20
2019-02-02T13:17:13.200Z,3.40
2019-02-02T13:19:43.957Z,3.80
2019-02-02T13:22:14.315Z,4.10
2019-02-02T13:24:45.328Z,4.20
2019-02-02T13:27:16.124Z,4.10
2019-02-02T13:29:46.446Z,3.90
2019-02-02T13:32:17.138Z,4.00
2019-02-02T13:34:47.934Z,4.20
2019-02-02T13:37:18.282Z,4.10
2019-02-02T13:39:49.081Z,3.90
2019-02-02T13:42:19.655Z,3.80
2019-02-02T13:44:50.343Z,3.60
2019-02-02T13:47:34.058Z,4.00
2019-02-02T13:50:05.207Z,3.60
2019-02-02T13:52:35.511Z,3.80
2019-02-02T13:55:06.204Z,4.00
2019-02-02T13:57:36.626Z,3.80
2019-02-02T14:00:10.865Z,3.60
2019-02-02T14:02:46.395Z,3.50
2019-02-02T14:05:17.764Z,3.70
2019-02-02T14:07:48.259Z,3.80
2019-02-02T14:10:21.963Z,3.00
2019-02-02T14:12:52.405Z,3.60
2019-02-02T14:15:49.004Z,3.80
2019-02-02T14:18:19.350Z,3.60
2019-02-02T14:20:49.963Z,3.70
2019-02-02T14:23:20.336Z,3.90
2019-02-02T14:25:50.711Z,4.10
2019-02-02T14:28:28.411Z,4.10
2019-02-02T14:30:53.876Z,4.30
2019-02-02T14:33:24.196Z,4.20
2019-02-02T14:35:54.535Z,4.20
2019-02-02T14:38:24.916Z,4.10
2019-02-02T14:40:55.353Z,4.30
2019-02-02T14:43:25.716Z,4.20
2019-02-02T14:45:56.374Z,3.50
2019-02-02T14:48:26.742Z,3.80
2019-02-02T14:50:57.423Z,3.80
2019-02-02T14:53:27.820Z,4.00
2019-02-02T14:55:59.537Z,4.10
2019-02-02T14:58:29.872Z,4.30
2019-02-02T15:01:02.206Z,4.20
2019-02-02T15:03:33.619Z,3.60
2019-02-02T15:06:04.268Z,3.50
2019-02-02T15:08:34.850Z,4.00
2019-02-02T15:11:05.231Z,4.00
2019-02-02T15:13:35.853Z,4.00
2019-02-02T15:16:06.273Z,4.00
2019-02-02T15:18:36.663Z,3.80
2019-02-02T15:21:07.288Z,4.00
2019-02-02T15:23:37.615Z,3.60
2019-02-02T15:26:07.990Z,4.10
2019-02-02T15:28:42.487Z,4.20
2019-02-02T15:31:12.881Z,4.20
2019-02-02T15:33:43.349Z,3.70
2019-02-02T15:36:14.728Z,4.00
2019-02-02T15:38:45.135Z,3.90
2019-02-02T15:41:15.939Z,3.90
2019-02-02T15:43:46.527Z,3.90
2019-02-02T15:46:17.549Z,3.90
2019-02-02T15:48:48.192Z,3.90
2019-02-02T15:51:18.842Z,3.60
2019-02-02T15:53:54.082Z,3.80
2019-02-02T15:56:24.439Z,3.80
2019-02-02T15:58:56.835Z,3.90
2019-02-02T16:01:27.471Z,3.70
2019-02-02T16:03:58.330Z,3.70
2019-02-02T16:06:28.769Z,3.80
2019-02-02T16:08:59.174Z,4.00
2019-02-02T16:11:29.603Z,4.20
2019-02-02T16:13:59.969Z,4.10
2019-02-02T16:16:40.499Z,3.90
2019-02-02T16:19:10.823Z,3.90
2019-02-02T16:21:41.107Z,3.70
2019-02-02T16:24:11.460Z,3.70
2019-02-02T16:26:41.864Z,3.50
2019-02-02T16:29:12.219Z,3.60
2019-02-02T16:31:42.560Z,3.60
2019-02-02T16:34:12.927Z,3.60
2019-02-02T16:36:43.313Z,3.50
2019-02-02T16:39:13.847Z,3.50
2019-02-02T16:42:03.292Z,3.20
2019-02-02T16:44:33.619Z,3.20
2019-02-02T16:47:08.428Z,3.30
2019-02-02T16:49:38.827Z,3.00
2019-02-02T16:52:09.175Z,3.10
2019-02-02T16:54:39.880Z,3.10
2019-02-02T16:57:10.278Z,3.20
2019-02-02T16:59:40.973Z,3.20
2019-02-02T17:02:11.385Z,3.20
2019-02-02T17:04:41.764Z,3.10
2019-02-02T17:07:12.141Z,2.90
2019-02-02T17:09:42.561Z,3.10
2019-02-02T17:12:12.960Z,3.10
2019-02-02T17:14:43.349Z,3.20
2019-02-02T17:17:13.768Z,3.30
2019-02-02T17:19:44.119Z,3.30
2019-02-02T17:22:14.756Z,3.40
2019-02-02T17:24:45.311Z,3.20
2019-02-02T17:27:15.931Z,3.30
2019-02-02T17:29:46.341Z,3.10
2019-02-02T17:32:16.740Z,3.20
2019-02-02T17:34:47.115Z,3.20
2019-02-02T17:37:17.469Z,3.40
2019-02-02T17:39:47.806Z,3.20
2019-02-02T17:42:18.224Z,3.20
2019-02-02T17:44:48.883Z,3.40
2019-02-02T17:47:19.232Z,3.30
2019-02-02T17:49:49.548Z,3.30
2019-02-02T17:52:23.809Z,3.30
2019-02-02T17:54:54.214Z,3.50
2019-02-02T17:57:34.722Z,3.40
2019-02-02T18:00:06.963Z,3.40
2019-02-02T18:02:37.309Z,2.90
2019-02-02T18:05:07.935Z,2.70
2019-02-02T18:07:38.306Z,2.90
2019-02-02T18:10:11.959Z,3.30
2019-02-02T18:12:42.569Z,3.50
2019-02-02T18:15:14.829Z,3.50
2019-02-02T18:17:45.192Z,3.50
2019-02-02T18:20:16.079Z,3.30
2019-02-02T18:22:46.463Z,3.50
2019-02-02T18:25:16.993Z,3.80
2019-02-02T18:27:47.464Z,3.90
2019-02-02T18:30:20.538Z,3.70
2019-02-02T18:32:51.530Z,3.70
2019-02-02T18:35:22.073Z,3.70
2019-02-02T18:37:52.749Z,3.30
2019-02-02T18:40:24.195Z,3.40
2019-02-02T18:42:55.182Z,3.30
2019-02-02T18:45:27.140Z,3.60
2019-02-02T18:47:57.490Z,3.70
2019-02-02T18:50:27.896Z,3.60
2019-02-02T18:52:58.370Z,3.50
2019-02-02T18:55:39.139Z,3.60
2019-02-02T18:58:09.506Z,3.70
2019-02-02T19:00:40.231Z,3.80
2019-02-02T19:03:10.561Z,3.80
2019-02-02T19:05:40.927Z,3.50
2019-02-02T19:08:11.559Z,3.50
2019-02-02T19:10:41.952Z,3.60
2019-02-02T19:13:12.736Z,3.60
2019-02-02T19:15:43.354Z,3.60
2019-02-02T19:18:14.979Z,3.70
2019-02-02T19:20:45.274Z,3.70
2019-02-02T19:23:24.839Z,3.60
2019-02-02T19:25:48.431Z,3.60
2019-02-02T19:28:19.024Z,3.50
2019-02-02T19:30:49.676Z,3.40
2019-02-02T19:33:20.010Z,3.40
2019-02-02T19:35:50.354Z,3.40
2019-02-02T19:38:20.699Z,3.40
2019-02-02T19:40:51.304Z,3.30
2019-02-02T19:43:21.899Z,3.40
2019-02-02T19:45:53.922Z,3.40
2019-02-02T19:48:24.326Z,3.50
2019-02-02T19:50:54.688Z,3.40
2019-02-02T19:53:25.146Z,3.40
2019-02-02T19:55:55.484Z,3.30
2019-02-02T19:58:25.841Z,3.30
2019-02-02T20:00:56.195Z,3.40
2019-02-02T20:03:26.897Z,3.30
2019-02-02T20:05:57.248Z,3.30
2019-02-02T20:08:27.621Z,3.20
2019-02-02T20:10:58.174Z,3.20
2019-02-02T20:13:28.780Z,3.10
2019-02-02T20:16:00.168Z,3.20
2019-02-02T20:18:32.608Z,3.20
2019-02-02T20:21:02.977Z,3.20
2019-02-02T20:23:38.558Z,3.30
2019-02-02T20:26:07.811Z,3.30
2019-02-02T20:28:38.408Z,3.30
2019-02-02T20:31:10.855Z,3.20
2019-02-02T20:33:41.683Z,3.10
2019-02-02T20:36:11.972Z,3.20
2019-02-02T20:38:55.154Z,3.30
2019-02-02T20:41:25.575Z,3.30
2019-02-02T20:43:56.041Z,3.30
2019-02-02T20:46:26.383Z,3.30
2019-02-02T20:48:56.756Z,3.30
2019-02-02T20:51:27.115Z,3.50
2019-02-02T20:53:57.561Z,3.30
2019-02-02T20:56:47.076Z,3.00
2019-02-02T20:59:17.737Z,3.40
2019-02-02T21:01:48.119Z,3.40
2019-02-02T21:04:18.477Z,3.40
2019-02-02T21:06:48.812Z,3.50
2019-02-02T21:09:21.268Z,3.30
2019-02-02T21:11:56.987Z,3.30
2019-02-02T21:14:24.809Z,3.50
2019-02-02T21:16:55.173Z,3.40
2019-02-02T21:19:27.033Z,3.50
2019-02-02T21:21:58.276Z,3.40
2019-02-02T21:24:28.642Z,3.40
2019-02-02T21:26:59.381Z,3.50
2019-02-02T21:29:29.852Z,3.20
2019-02-02T21:32:02.594Z,3.40
2019-02-02T21:34:33.010Z,3.20
2019-02-02T21:37:03.427Z,3.40
2019-02-02T21:39:33.784Z,3.50
2019-02-02T21:42:04.224Z,3.40
2019-02-02T21:44:42.765Z,3.30
2019-02-02T21:47:07.844Z,3.40
2019-02-02T21:49:38.492Z,3.30
2019-02-02T21:52:08.854Z,3.40
2019-02-02T21:54:39.409Z,3.30
2019-02-02T21:57:09.864Z,3.30
2019-02-02T21:59:44.315Z,3.20
2019-02-02T22:02:14.657Z,3.20
2019-02-02T22:04:45.549Z,3.40
2019-02-02T22:07:16.211Z,3.20
2019-02-02T22:09:46.849Z,3.30
2019-02-02T22:12:17.251Z,3.50
2019-02-02T22:14:47.968Z,3.50
2019-02-02T22:17:18.485Z,3.50
2019-02-02T22:19:48.977Z,3.50
2019-02-02T22:22:21.837Z,3.50
2019-02-02T22:24:51.512Z,3.50
2019-02-02T22:27:21.867Z,3.50
2019-02-02T22:29:52.334Z,3.60
2019-02-02T22:32:22.733Z,3.70
2019-02-02T22:34:53.141Z,3.90
2019-02-02T22:37:24.020Z,4.00
2019-02-02T22:39:54.407Z,3.60
2019-02-02T22:42:24.809Z,3.40
2019-02-02T22:44:55.515Z,3.60
2019-02-02T22:47:26.380Z,3.90
2019-02-02T22:49:57.135Z,3.90
2019-02-02T22:52:27.750Z,3.90
2019-02-02T22:54:58.101Z,3.50
2019-02-02T22:57:28.518Z,3.70
2019-02-02T22:59:58.837Z,3.90
2019-02-02T23:02:29.626Z,4.10
2019-02-02T23:05:19.139Z,4.20
2019-02-02T23:08:34.270Z,3.90
2019-02-02T23:12:01.748Z,3.90
2019-02-02T23:15:11.027Z,4.10
2019-02-02T23:17:44.590Z,4.10
2019-02-02T23:20:14.935Z,4.20
2019-02-02T23:22:45.301Z,4.20
2019-02-02T23:25:15.684Z,4.30
2019-02-02T23:27:46.098Z,4.30
2019-02-02T23:30:16.928Z,4.30
2019-02-02T23:32:47.288Z,4.30
2019-02-02T23:35:17.723Z,4.40
2019-02-02T23:37:48.885Z,4.40
2019-02-02T23:40:19.652Z,4.40
2019-02-02T23:42:50.174Z,4.30
2019-02-02T23:45:20.574Z,4.40
2019-02-02T23:47:51.058Z,4.40
2019-02-02T23:50:22.140Z,4.30
2019-02-02T23:52:52.483Z,4.20
2019-02-02T23:55:23.348Z,4.00
2019-02-02T23:57:53.740Z,3.90
